createdAt,value
2023-05-13T00:01:39.015Z,101038.64
2023-05-13T00:04:09.760Z,101037.02
2023-05-13T00:06:41.266Z,101037.07
2023-05-13T00:09:10.417Z,101037.19
2023-05-13T00:11:41.305Z,101038.19
2023-05-13T00:14:12.505Z,101040.00
2023-05-13T00:16:41.516Z,101037.17
2023-05-13T00:19:12.668Z,101038.90
2023-05-13T00:21:44.965Z,101035.63
2023-05-13T00:24:13.901Z,101038.64
2023-05-13T00:26:43.096Z,101040.59
2023-05-13T00:29:12.288Z,101040.54
2023-05-13T00:31:41.728Z,101040.98
2023-05-13T00:34:11.648Z,101040.58
2023-05-13T00:36:43.798Z,101041.79
2023-05-13T00:39:13.718Z,101043.13
2023-05-13T00:41:43.198Z,101043.17
2023-05-13T00:44:15.084Z,101043.58
2023-05-13T00:46:45.443Z,101040.98
2023-05-13T00:49:14.277Z,101038.88
2023-05-13T00:51:44.505Z,101043.73
2023-05-13T00:54:16.444Z,101041.27
2023-05-13T00:56:46.137Z,101040.94
2023-05-13T00:59:17.697Z,101037.75
2023-05-13T01:01:56.090Z,101039.25
2023-05-13T01:04:26.408Z,101043.27
2023-05-13T01:06:55.716Z,101041.15
2023-05-13T01:09:27.567Z,101044.35
2023-05-13T01:12:02.084Z,101046.71
2023-05-13T01:14:36.062Z,101050.73
2023-05-13T01:17:21.253Z,101052.16
2023-05-13T01:19:52.920Z,101053.41
2023-05-13T01:22:22.140Z,101050.05
2023-05-13T01:24:51.122Z,101052.27
2023-05-13T01:27:20.663Z,101052.72
2023-05-13T01:29:52.173Z,101052.27
2023-05-13T01:32:25.033Z,101054.27
2023-05-13T01:34:54.392Z,101057.12
2023-05-13T01:37:23.884Z,101051.19
2023-05-13T01:39:54.009Z,101059.52
2023-05-13T01:42:27.180Z,101057.45
2023-05-13T01:44:56.829Z,101054.77
2023-05-13T01:47:27.513Z,101056.61
2023-05-13T01:49:56.541Z,101054.24
2023-05-13T01:52:27.128Z,101058.41
2023-05-13T01:54:55.997Z,101058.60
2023-05-13T01:57:25.140Z,101060.71
2023-05-13T01:59:55.031Z,101058.23
2023-05-13T02:02:24.314Z,101058.81
2023-05-13T02:04:53.514Z,101060.05
2023-05-13T02:07:22.684Z,101056.96
2023-05-13T02:09:55.778Z,101062.06
2023-05-13T02:12:24.851Z,101059.39
2023-05-13T02:14:58.272Z,101057.77
2023-05-13T02:17:28.491Z,101058.52
2023-05-13T02:19:58.215Z,101055.25
2023-05-13T02:22:27.066Z,101054.63
2023-05-13T02:24:56.365Z,101056.05
2023-05-13T02:27:27.749Z,101050.69
2023-05-13T02:29:56.840Z,101048.77
2023-05-13T02:32:28.073Z,101050.46
2023-05-13T02:34:57.755Z,101049.74
2023-05-13T02:37:27.691Z,101050.23
2023-05-13T02:40:01.641Z,101049.81
2023-05-13T02:42:30.878Z,101049.36
2023-05-13T02:45:01.457Z,101049.36
2023-05-13T02:47:32.082Z,101047.08
2023-05-13T02:50:06.338Z,101046.75
2023-05-13T02:52:36.346Z,101049.35
2023-05-13T02:55:11.034Z,101047.95
2023-05-13T02:57:39.900Z,101053.09
2023-05-13T03:00:10.291Z,101055.23
2023-05-13T03:02:43.745Z,101057.29
2023-05-13T03:05:19.827Z,101061.33
2023-05-13T03:07:50.418Z,101062.66
2023-05-13T03:10:20.461Z,101054.56
2023-05-13T03:12:51.259Z,101059.15
2023-05-13T03:15:21.612Z,101061.63
2023-05-13T03:17:51.026Z,101061.23
2023-05-13T03:20:21.474Z,101061.73
2023-05-13T03:22:51.911Z,101063.34
2023-05-13T03:25:21.753Z,101058.81
2023-05-13T03:27:54.888Z,101064.79
2023-05-13T03:30:25.812Z,101061.86
2023-05-13T03:33:07.374Z,101059.88
2023-05-13T03:35:36.956Z,101059.33
2023-05-13T03:38:07.879Z,101057.19
2023-05-13T03:40:39.146Z,101055.90
2023-05-13T03:43:10.742Z,101055.67
2023-05-13T03:45:41.441Z,101058.13
2023-05-13T03:48:13.140Z,101063.43
2023-05-13T03:50:42.183Z,101059.88
2023-05-13T03:53:12.469Z,101063.10
2023-05-13T03:55:42.384Z,101064.23
2023-05-13T03:58:15.432Z,101067.73
2023-05-13T04:00:48.796Z,101069.98
2023-05-13T04:03:19.626Z,101069.23
2023-05-13T04:05:49.029Z,101066.77
2023-05-13T04:08:20.462Z,101068.79
2023-05-13T04:10:49.848Z,101065.89
2023-05-13T04:13:20.216Z,101064.84
2023-05-13T04:15:51.433Z,101065.36
2023-05-13T04:18:20.696Z,101063.21
2023-05-13T04:20:49.575Z,101060.80
2023-05-13T04:23:18.304Z,101059.56
2023-05-13T04:25:52.694Z,101061.63
2023-05-13T04:28:21.625Z,101061.70
2023-05-13T04:30:52.117Z,101059.59
2023-05-13T04:33:21.601Z,101063.36
2023-05-13T04:35:51.253Z,101067.14
2023-05-13T04:38:22.542Z,101065.48
2023-05-13T04:40:52.508Z,101068.88
2023-05-13T04:43:32.564Z,101070.68
2023-05-13T04:46:02.795Z,101069.52
2023-05-13T04:48:32.989Z,101074.44
2023-05-13T04:51:03.080Z,101078.16
2023-05-13T04:53:33.419Z,101078.05
2023-05-13T04:56:05.355Z,101078.80
2023-05-13T04:58:34.265Z,101080.17
2023-05-13T05:01:04.368Z,101079.07
2023-05-13T05:03:33.993Z,101083.02
2023-05-13T05:06:03.949Z,101082.30
2023-05-13T05:08:34.910Z,101085.56
2023-05-13T05:11:04.283Z,101090.71
2023-05-13T05:13:35.539Z,101085.95
2023-05-13T05:16:04.590Z,101085.56
2023-05-13T05:18:33.950Z,101086.83
2023-05-13T05:21:03.638Z,101088.55
2023-05-13T05:23:33.107Z,101087.56
2023-05-13T05:26:11.859Z,101085.05
2023-05-13T05:28:46.491Z,101083.23
2023-05-13T05:31:15.718Z,101085.29
2023-05-13T05:33:45.814Z,101082.95
2023-05-13T05:36:15.700Z,101084.59
2023-05-13T05:38:44.473Z,101081.60
2023-05-13T05:41:14.429Z,101082.91
2023-05-13T05:43:43.137Z,101083.73
2023-05-13T05:46:13.910Z,101085.15
2023-05-13T05:48:43.022Z,101085.71
2023-05-13T05:51:13.126Z,101087.09
2023-05-13T05:53:42.737Z,101089.08
2023-05-13T05:56:13.796Z,101092.27
2023-05-13T05:58:44.292Z,101088.84
2023-05-13T06:01:13.794Z,101086.71
2023-05-13T06:03:44.284Z,101087.52
2023-05-13T06:06:13.222Z,101085.20
2023-05-13T06:08:42.344Z,101083.84
2023-05-13T06:11:11.071Z,101082.61
2023-05-13T06:13:40.134Z,101086.35
2023-05-13T06:16:10.205Z,101085.23
2023-05-13T06:18:40.076Z,101085.08
2023-05-13T06:21:08.849Z,101089.42
2023-05-13T06:23:38.238Z,101087.86
2023-05-13T06:26:08.268Z,101082.61
2023-05-13T06:28:38.650Z,101083.52
2023-05-13T06:31:09.903Z,101080.35
2023-05-13T06:33:41.293Z,101083.03
2023-05-13T06:36:10.066Z,101085.89
2023-05-13T06:38:41.488Z,101084.46
2023-05-13T06:41:12.071Z,101083.09
2023-05-13T06:43:42.756Z,101079.48
2023-05-13T06:46:22.420Z,101081.52
2023-05-13T06:48:53.990Z,101082.69
2023-05-13T06:51:25.373Z,101078.02
2023-05-13T06:53:54.563Z,101082.10
2023-05-13T06:56:24.102Z,101081.75
2023-05-13T06:58:53.442Z,101078.66
2023-05-13T07:01:22.240Z,101082.63
2023-05-13T07:03:52.246Z,101076.50
2023-05-13T07:06:21.588Z,101075.00
2023-05-13T07:08:51.421Z,101077.48
2023-05-13T07:11:21.590Z,101077.91
2023-05-13T07:13:50.514Z,101071.67
2023-05-13T07:16:21.958Z,101072.01
2023-05-13T07:18:52.917Z,101073.36
2023-05-13T07:21:23.188Z,101072.20
2023-05-13T07:23:52.949Z,101070.54
2023-05-13T07:26:22.197Z,101069.84
2023-05-13T07:28:50.987Z,101064.23
2023-05-13T07:31:19.975Z,101059.29
2023-05-13T07:33:49.034Z,101054.03
2023-05-13T07:36:17.842Z,101059.17
2023-05-13T07:38:46.589Z,101054.71
2023-05-13T07:41:16.540Z,101054.85
2023-05-13T07:43:45.774Z,101049.59
2023-05-13T07:46:14.609Z,101052.91
2023-05-13T07:48:43.833Z,101054.66
2023-05-13T07:51:12.642Z,101053.16
2023-05-13T07:53:42.031Z,101048.61
2023-05-13T07:56:10.879Z,101044.77
2023-05-13T07:58:41.060Z,101045.89
2023-05-13T08:01:11.341Z,101044.08
2023-05-13T08:03:40.656Z,101046.05
2023-05-13T08:06:09.657Z,101045.30
2023-05-13T08:08:38.992Z,101043.40
2023-05-13T08:11:09.678Z,101035.55
2023-05-13T08:13:38.870Z,101042.17
2023-05-13T08:16:08.855Z,101046.09
2023-05-13T08:18:38.413Z,101039.98
2023-05-13T08:21:07.257Z,101046.48
2023-05-13T08:23:44.811Z,101037.77
2023-05-13T08:26:14.363Z,101042.66
2023-05-13T08:28:43.239Z,101040.10
2023-05-13T08:31:13.108Z,101036.64
2023-05-13T08:33:46.512Z,101038.42
2023-05-13T08:36:16.565Z,101039.92
2023-05-13T08:38:46.246Z,101037.64
2023-05-13T08:41:15.857Z,101039.51
2023-05-13T08:43:47.408Z,101041.10
2023-05-13T08:46:17.418Z,101040.30
2023-05-13T08:48:47.562Z,101034.89
2023-05-13T08:51:16.999Z,101029.33
2023-05-13T08:53:46.700Z,101033.55
2023-05-13T08:56:15.793Z,101031.06
2023-05-13T08:58:45.042Z,101024.97
2023-05-13T09:01:14.080Z,101028.70
2023-05-13T09:03:53.403Z,101019.02
2023-05-13T09:06:22.910Z,101020.76
2023-05-13T09:08:53.285Z,101008.55
2023-05-13T09:11:22.938Z,101006.77
2023-05-13T09:14:03.231Z,101011.48
2023-05-13T09:16:33.483Z,101008.57
2023-05-13T09:19:06.381Z,100999.02
2023-05-13T09:21:38.628Z,101005.56
2023-05-13T09:24:18.847Z,101002.60
2023-05-13T09:26:49.992Z,101001.27
2023-05-13T09:29:27.349Z,101004.71
2023-05-13T09:31:58.183Z,100997.80
2023-05-13T09:34:31.888Z,100994.69
2023-05-13T09:37:03.797Z,100998.74
2023-05-13T09:39:34.175Z,100990.80
2023-05-13T09:42:05.097Z,100989.85
2023-05-13T09:44:34.744Z,100995.95
2023-05-13T09:47:05.015Z,100984.37
2023-05-13T09:49:34.219Z,100974.38
2023-05-13T09:52:05.127Z,100983.13
2023-05-13T09:54:39.411Z,100972.32
2023-05-13T09:57:08.516Z,100978.49
2023-05-13T09:59:39.247Z,100976.91
2023-05-13T10:02:10.738Z,100971.38
2023-05-13T10:04:40.595Z,100966.88
2023-05-13T10:07:10.137Z,100967.58
2023-05-13T10:09:39.729Z,100959.29
2023-05-13T10:12:12.083Z,100974.52
2023-05-13T10:14:42.390Z,100966.23
2023-05-13T10:17:13.370Z,100966.98
2023-05-13T10:19:42.943Z,100962.80
2023-05-13T10:22:14.707Z,100962.82
2023-05-13T10:24:45.681Z,100955.21
2023-05-13T10:27:16.321Z,100964.55
2023-05-13T10:30:15.393Z,100968.21
2023-05-13T10:32:44.213Z,100966.11
2023-05-13T10:35:18.341Z,100963.23
2023-05-13T10:37:49.857Z,100955.67
2023-05-13T10:40:30.138Z,100946.00
2023-05-13T10:43:14.862Z,100950.11
2023-05-13T10:45:49.737Z,100946.44
2023-05-13T10:48:22.059Z,100956.48
2023-05-13T10:50:57.008Z,100952.52
2023-05-13T10:53:29.162Z,100942.34
2023-05-13T10:56:03.424Z,100936.40
2023-05-13T10:58:34.652Z,100944.66
2023-05-13T11:01:34.402Z,100945.11
2023-05-13T11:04:05.243Z,100943.70
2023-05-13T11:06:39.014Z,100941.95
2023-05-13T11:09:16.053Z,100950.17
2023-05-13T11:11:48.177Z,100951.21
2023-05-13T11:14:36.994Z,100946.98
2023-05-13T11:17:12.124Z,100941.70
2023-05-13T11:19:48.064Z,100937.98
2023-05-13T11:22:21.333Z,100935.31
2023-05-13T11:25:12.305Z,100935.02
2023-05-13T11:27:44.425Z,100935.69
2023-05-13T11:31:08.345Z,100938.42
2023-05-13T11:33:56.337Z,100938.98
2023-05-13T11:36:30.317Z,100942.16
2023-05-13T11:39:06.961Z,100942.16
2023-05-13T11:41:36.910Z,100937.65
2023-05-13T11:44:07.284Z,100937.61
2023-05-13T11:46:37.342Z,100936.35
2023-05-13T11:49:08.165Z,100936.25
2023-05-13T11:51:41.518Z,100940.55
2023-05-13T11:54:13.603Z,100943.25
2023-05-13T11:56:44.823Z,100931.93
2023-05-13T11:59:17.729Z,100938.67
2023-05-13T12:01:48.406Z,100929.91
2023-05-13T12:04:20.543Z,100930.11
2023-05-13T12:06:51.210Z,100941.30
2023-05-13T12:09:26.971Z,100937.11
2023-05-13T12:11:56.016Z,100940.77
2023-05-13T12:14:29.395Z,100934.02
2023-05-13T12:16:59.284Z,100927.15
2023-05-13T12:19:33.185Z,100932.52
2023-05-13T12:22:05.476Z,100932.16
2023-05-13T12:24:39.180Z,100930.62
2023-05-13T12:27:11.279Z,100931.80
2023-05-13T12:30:08.041Z,100928.79
2023-05-13T12:32:47.204Z,100929.79
2023-05-13T12:35:16.521Z,100925.59
2023-05-13T12:37:59.656Z,100916.77
2023-05-13T12:43:23.061Z,100926.90
2023-05-13T12:45:55.191Z,100918.78
2023-05-13T12:48:25.980Z,100925.17
2023-05-13T12:50:56.943Z,100921.15
2023-05-13T12:53:26.995Z,100924.59
2023-05-13T12:55:57.748Z,100922.95
2023-05-13T12:58:27.068Z,100928.66
2023-05-13T13:00:58.805Z,100925.45
2023-05-13T13:03:30.857Z,100924.70
2023-05-13T13:06:01.640Z,100925.45
2023-05-13T13:08:31.198Z,100920.84
2023-05-13T13:11:01.028Z,100915.08
2023-05-13T13:13:30.113Z,100909.55
2023-05-13T13:16:03.362Z,100909.95
2023-05-13T13:18:36.157Z,100908.15
2023-05-13T13:21:06.391Z,100907.95
2023-05-13T13:23:39.477Z,100898.27
2023-05-13T13:26:17.623Z,100907.00
2023-05-13T13:28:51.626Z,100902.33
2023-05-13T13:31:25.663Z,100899.31
2023-05-13T13:33:57.748Z,100913.52
2023-05-13T13:36:31.439Z,100913.86
2023-05-13T13:39:07.007Z,100915.94
2023-05-13T13:41:38.217Z,100920.14
2023-05-13T13:44:08.758Z,100926.81
2023-05-13T13:46:37.859Z,100924.54
2023-05-13T13:49:22.683Z,100926.13
2023-05-13T13:51:53.782Z,100925.38
2023-05-13T13:54:23.865Z,100929.41
2023-05-13T13:56:57.658Z,100924.35
2023-05-13T13:59:26.952Z,100924.01
2023-05-13T14:01:58.062Z,100917.30
2023-05-13T14:04:31.155Z,100908.19
2023-05-13T14:07:03.370Z,100905.48
2023-05-13T14:09:36.049Z,100903.71
2023-05-13T14:12:06.089Z,100901.19
2023-05-13T14:14:35.480Z,100906.97
2023-05-13T14:17:05.324Z,100901.23
2023-05-13T14:19:35.335Z,100902.51
2023-05-13T14:22:07.153Z,100896.83
2023-05-13T14:24:37.917Z,100889.36
2023-05-13T14:27:09.765Z,100889.09
2023-05-13T14:29:39.169Z,100914.89
2023-05-13T14:32:09.947Z,100921.20
2023-05-13T14:34:39.367Z,100912.95
2023-05-13T14:37:11.756Z,100925.21
2023-05-13T14:39:40.968Z,100948.58
2023-05-13T14:42:13.762Z,100944.94
2023-05-13T14:44:44.396Z,100947.07
2023-05-13T14:47:13.493Z,100953.48
2023-05-13T14:49:43.554Z,100947.31
2023-05-13T14:52:14.360Z,100953.46
2023-05-13T14:54:45.193Z,100946.71
2023-05-13T14:57:14.775Z,100940.19
2023-05-13T14:59:43.641Z,100935.45
2023-05-13T15:02:17.807Z,100929.34
2023-05-13T15:04:50.959Z,100929.11
2023-05-13T15:07:20.090Z,100923.95
2023-05-13T15:09:50.804Z,100922.94
2023-05-13T15:12:22.327Z,100924.67
2023-05-13T15:14:52.634Z,100923.84
2023-05-13T15:17:23.002Z,100921.55
2023-05-13T15:19:51.955Z,100924.56
2023-05-13T15:22:20.941Z,100927.38
2023-05-13T15:24:51.416Z,100928.54
2023-05-13T15:27:20.654Z,100927.15
2023-05-13T15:29:55.552Z,100927.64
2023-05-13T15:32:27.544Z,100921.60
2023-05-13T15:34:57.225Z,100919.96
2023-05-13T15:37:26.171Z,100921.21
2023-05-13T15:39:55.538Z,100916.27
2023-05-13T15:42:26.087Z,100916.98
2023-05-13T15:44:57.784Z,100916.21
2023-05-13T15:47:29.971Z,100909.27
2023-05-13T15:50:00.577Z,100909.00
2023-05-13T15:52:30.501Z,100909.30
2023-05-13T15:55:00.978Z,100910.52
2023-05-13T15:57:30.700Z,100912.42
2023-05-13T16:00:03.760Z,100911.27
2023-05-13T16:02:39.503Z,100906.48
2023-05-13T16:05:12.541Z,100903.11
2023-05-13T16:07:42.969Z,100903.90
2023-05-13T16:10:12.295Z,100902.55
2023-05-13T16:12:41.387Z,100906.21
2023-05-13T16:15:11.751Z,100906.33
2023-05-13T16:17:41.186Z,100908.10
2023-05-13T16:20:11.769Z,100906.66
2023-05-13T16:22:41.912Z,100909.50
2023-05-13T16:25:15.045Z,100899.14
2023-05-13T16:27:47.429Z,100904.18
2023-05-13T16:30:18.347Z,100904.89
2023-05-13T16:32:49.327Z,100903.46
2023-05-13T16:35:18.049Z,100899.81
2023-05-13T16:37:48.823Z,100898.23
2023-05-13T16:40:17.660Z,100892.95
2023-05-13T16:42:47.281Z,100892.30
2023-05-13T16:45:16.730Z,100896.88
2023-05-13T16:47:45.687Z,100894.59
2023-05-13T16:50:14.945Z,100894.60
2023-05-13T16:52:45.563Z,100896.75
2023-05-13T16:55:14.384Z,100893.10
2023-05-13T16:57:44.114Z,100893.73
2023-05-13T17:00:14.961Z,100888.55
2023-05-13T17:02:44.041Z,100884.30
2023-05-13T17:05:13.437Z,100881.86
2023-05-13T17:07:44.269Z,100881.90
2023-05-13T17:10:14.616Z,100884.20
2023-05-13T17:12:44.071Z,100876.55
2023-05-13T17:15:13.600Z,100878.93
2023-05-13T17:17:42.382Z,100878.14
2023-05-13T17:20:11.634Z,100881.34
2023-05-13T17:22:45.782Z,100880.89
2023-05-13T17:25:15.278Z,100876.27
2023-05-13T17:27:45.587Z,100879.27
2023-05-13T17:30:16.058Z,100881.59
2023-05-13T17:32:45.107Z,100881.67
2023-05-13T17:35:14.425Z,100875.23
2023-05-13T17:37:43.302Z,100880.75
2023-05-13T17:40:12.504Z,100878.67
2023-05-13T17:42:41.776Z,100880.27
2023-05-13T17:45:11.561Z,100884.35
2023-05-13T17:47:42.247Z,100878.85
2023-05-13T17:50:11.378Z,100881.70
2023-05-13T17:52:40.993Z,100884.88
2023-05-13T17:55:11.054Z,100884.33
2023-05-13T17:57:42.320Z,100883.73
2023-05-13T18:00:14.750Z,100884.20
2023-05-13T18:02:43.926Z,100887.08
2023-05-13T18:05:14.117Z,100890.24
2023-05-13T18:07:43.288Z,100884.88
2023-05-13T18:10:12.477Z,100890.56
2023-05-13T18:12:41.263Z,100890.95
2023-05-13T18:15:10.849Z,100888.63
2023-05-13T18:17:41.128Z,100894.35
2023-05-13T18:20:10.560Z,100899.34
2023-05-13T18:22:39.876Z,100899.04
2023-05-13T18:25:10.557Z,100897.44
2023-05-13T18:27:39.780Z,100899.46
2023-05-13T18:30:11.012Z,100897.75
2023-05-13T18:32:40.510Z,100903.59
2023-05-13T18:35:10.050Z,100903.04
2023-05-13T18:37:41.328Z,100910.00
2023-05-13T18:40:10.981Z,100914.56
2023-05-13T18:42:40.564Z,100918.45
2023-05-13T18:45:10.382Z,100927.88
2023-05-13T18:47:40.990Z,100920.33
2023-05-13T18:50:11.824Z,100918.13
2023-05-13T18:52:43.035Z,100916.05
2023-05-13T18:55:15.363Z,100915.83
2023-05-13T18:57:46.907Z,100913.96
2023-05-13T19:00:18.265Z,100917.75
2023-05-13T19:02:51.717Z,100919.48
2023-05-13T19:05:21.751Z,100923.02
2023-05-13T19:07:50.499Z,100925.58
2023-05-13T19:10:20.446Z,100928.10
2023-05-13T19:12:49.506Z,100925.45
2023-05-13T19:15:23.470Z,100929.61
2023-05-13T19:17:55.188Z,100922.70
2023-05-13T19:20:26.225Z,100924.48
2023-05-13T19:22:55.727Z,100932.80
2023-05-13T19:25:26.264Z,100925.33
2023-05-13T19:27:57.365Z,100933.51
2023-05-13T19:30:29.565Z,100929.71
2023-05-13T19:32:59.808Z,100932.10
2023-05-13T19:35:29.749Z,100929.73
2023-05-13T19:37:59.931Z,100928.16
2023-05-13T19:40:32.146Z,100929.20
2023-05-13T19:43:05.455Z,100933.10
2023-05-13T19:45:37.969Z,100935.06
2023-05-13T19:48:09.076Z,100931.88
2023-05-13T19:50:43.737Z,100934.27
2023-05-13T19:53:17.904Z,100931.95
2023-05-13T19:55:47.942Z,100930.92
2023-05-13T19:58:17.304Z,100930.89
2023-05-13T20:00:47.235Z,100938.52
2023-05-13T20:03:18.755Z,100935.14
2023-05-13T20:05:49.524Z,100934.52
2023-05-13T20:08:22.695Z,100929.61
2023-05-13T20:10:51.887Z,100931.04
2023-05-13T20:13:20.687Z,100930.45
2023-05-13T20:15:51.914Z,100934.18
2023-05-13T20:18:22.191Z,100932.14
2023-05-13T20:20:52.409Z,100930.43
2023-05-13T20:23:22.727Z,100932.73
2023-05-13T20:26:02.817Z,100935.16
2023-05-13T20:28:36.142Z,100930.94
2023-05-13T20:31:08.700Z,100940.35
2023-05-13T20:33:39.947Z,100938.70
2023-05-13T20:36:12.629Z,100935.45
2023-05-13T20:38:42.643Z,100934.57
2023-05-13T20:41:12.969Z,100933.67
2023-05-13T20:43:41.692Z,100929.39
2023-05-13T20:46:15.387Z,100930.70
2023-05-13T20:48:45.262Z,100928.52
2023-05-13T20:51:14.167Z,100930.84
2023-05-13T20:53:43.669Z,100930.08
2023-05-13T20:56:13.194Z,100929.02
2023-05-13T20:58:42.070Z,100925.98
2023-05-13T21:01:13.027Z,100924.92
2023-05-13T21:03:42.943Z,100917.60
2023-05-13T21:06:13.962Z,100927.11
2023-05-13T21:08:44.516Z,100925.44
2023-05-13T21:11:13.758Z,100928.91
2023-05-13T21:13:44.302Z,100930.54
2023-05-13T21:16:13.278Z,100926.12
2023-05-13T21:18:43.453Z,100926.59
2023-05-13T21:21:13.765Z,100931.68
2023-05-13T21:23:46.015Z,100930.21
2023-05-13T21:26:15.313Z,100930.94
2023-05-13T21:28:46.555Z,100930.69
2023-05-13T21:31:17.091Z,100928.61
2023-05-13T21:33:46.113Z,100923.89
2023-05-13T21:36:15.448Z,100928.19
2023-05-13T21:38:44.323Z,100927.34
2023-05-13T21:41:13.264Z,100928.80
2023-05-13T21:43:42.877Z,100929.14
2023-05-13T21:46:13.372Z,100929.77
2023-05-13T21:48:42.872Z,100929.55
2023-05-13T21:51:11.962Z,100927.99
2023-05-13T21:53:40.846Z,100929.04
2023-05-13T21:56:09.600Z,100928.41
2023-05-13T21:58:38.816Z,100933.69
2023-05-13T22:01:08.806Z,100934.59
2023-05-13T22:03:38.025Z,100930.81
2023-05-13T22:06:08.452Z,100929.59
2023-05-13T22:08:38.263Z,100930.17
2023-05-13T22:11:09.472Z,100930.67
2023-05-13T22:13:39.692Z,100933.10
2023-05-13T22:16:11.267Z,100930.79
2023-05-13T22:18:41.099Z,100931.74
2023-05-13T22:21:12.258Z,100931.39
2023-05-13T22:23:41.185Z,100932.52
2023-05-13T22:26:10.393Z,100935.30
2023-05-13T22:28:39.713Z,100933.02
2023-05-13T22:31:09.122Z,100935.50
2023-05-13T22:33:41.838Z,100934.75
2023-05-13T22:36:11.936Z,100934.52
2023-05-13T22:38:41.777Z,100934.08
2023-05-13T22:41:12.080Z,100935.04
2023-05-13T22:43:44.029Z,100932.98
2023-05-13T22:46:13.195Z,100932.95
2023-05-13T22:48:42.047Z,100928.98
2023-05-13T22:51:11.570Z,100933.40
2023-05-13T22:53:42.764Z,100938.86
2023-05-13T22:56:13.254Z,100935.34
2023-05-13T22:58:41.972Z,100934.14
2023-05-13T23:01:11.048Z,100934.52
2023-05-13T23:03:41.256Z,100930.83
2023-05-13T23:06:11.500Z,100928.36
2023-05-13T23:08:40.671Z,100926.63
2023-05-13T23:11:09.930Z,100922.52
2023-05-13T23:13:40.528Z,100918.19
2023-05-13T23:16:09.714Z,100921.50
2023-05-13T23:18:39.795Z,100918.16
2023-05-13T23:21:09.528Z,100919.05
2023-05-13T23:23:40.170Z,100922.70
2023-05-13T23:26:10.537Z,100915.91
2023-05-13T23:28:39.427Z,100915.45
2023-05-13T23:31:08.651Z,100917.41
2023-05-13T23:33:37.745Z,100916.54
2023-05-13T23:36:07.405Z,100911.36
2023-05-13T23:38:38.108Z,100909.58
2023-05-13T23:41:06.784Z,100908.77
2023-05-13T23:43:37.664Z,100909.14
2023-05-13T23:46:06.370Z,100908.29
2023-05-13T23:48:36.911Z,100909.48
2023-05-13T23:51:07.096Z,100908.77
2023-05-13T23:53:35.996Z,100906.45
2023-05-13T23:56:08.487Z,100900.59
2023-05-13T23:58:37.132Z,100906.30
